Weather observations for the past three days for
Caldwell - Caldwell Industrial Airport
Metric (Imperial)
Date Time (mdt) Wind (kph) Vis. (km) Weather Sky Cond. Temperature (ºC) Relative Humidity Wind Chill (°C) Heat Index (°C) Pressure Precipitation (cm)
Air Dwpt 6 hour altimeter (cm) sea level (mb) 1 hr 3 hr 6 hr
Max. Min.
02 09:56 SE 19 16.09 Fair CLR 16.1 -1.1 31% 76.33 1016.8
02 08:56 N 6 16.09 Fair CLR 12.2 2.8 53% 76.3 1016.8
02 07:56 Calm 16.09 Fair CLR 7.2 4.4 83% 76.3 1016.7
02 06:56 Calm 16.09 Fair CLR 6.1 2.8 80% 76.28 1016.2
02 03:56 NE 6 16.09 Fair CLR 7.8 2.2 68% 76.25 1015.7
02 02:56 Calm 16.09 Fair CLR 7.2 2.2 71% 76.25 1015.8
02 01:56 NE 9 16.09 Fair CLR 8.3 2.2 66% 7 76.28 1016.0
02 00:56 E 15 16.09 Fair CLR 10 2.2 59% 8 76.25 1015.9
01 23:56 NE 6 16.09 Fair CLR 13.3 2.8 24.4 11.1 49% 76.28 1015.8
01 22:56 NE 9 16.09 Fair CLR 12.8 3.3 53% 76.25 1016.0
01 21:56 NE 7 16.09 Fair CLR 15 3.3 46% 76.25 1015.9
01 20:56 N 11 16.09 Fair CLR 16.7 3.9 43% 76.23 1015.6
01 19:56 N 9 16.09 Fair CLR 21.1 4.4 34% 76.2 1015.3
01 18:56 NE 13 16.09 Fair CLR 22.8 2.2 26% 76.23 1015.7
01 17:56 N 13 16.09 Fair CLR 23.3 0.6 24.4 19.4 22% 76.25 1016.0
01 16:56 Calm 16.09 Fair CLR 23.3 0 21% 76.3 1016.5
01 15:56 E 11 16.09 Fair CLR 23.3 1.7 24% 76.38 1017.5
01 14:56 N 7 16.09 Fair CLR 23.3 0 21% 76.43 1018.3
01 13:56 Calm 16.09 Fair CLR 22.2 -0.6 22% 76.48 1019.0
01 12:56 Calm 16.09 Fair CLR 21.1 3.3 31% 76.53 1019.8
01 11:56 Vrbl 6 16.09 Fair CLR 19.4 5.6 19.4 5 41% 76.58 1020.2
01 10:56 S 11 16.09 Fair CLR 16.7 4.4 44% 76.61 1020.8
01 09:56 S 7 16.09 Fair CLR 14.4 3.9 50% 76.63 1021.0
01 08:56 Calm 16.09 Fair CLR 11.1 3.9 61% 76.61 1021.0
01 07:56 Calm 16.09 Fair CLR 8.3 5 80% 76.58 1020.5
01 06:56 Calm 16.09 Fair CLR 5.6 2.8 82% 76.53 1019.9
01 05:56 E 7 16.09 Fair CLR 6.1 2.8 12.8 6.1 80% 5 76.48 1019.2
01 04:56 S 6 16.09 Fair CLR 7.2 3.3 77% 76.48 1019.2
01 03:56 Calm 16.09 Fair CLR 7.2 3.9 80% 76.45 1018.9
01 02:56 NE 11 16.09 Fair CLR 6.7 3.3 79% 5 76.48 1019.1
01 01:56 NE 9 16.09 Fair CLR 7.8 3.3 73% 6 76.48 1019.2
01 00:56 SE 11 16.09 Fair CLR 8.9 3.3 68% 7 76.45 1018.9
30 23:56 Calm 16.09 Fair CLR 12.8 2.8 21.7 11.7 51% 76.4 1017.8
30 22:56 W 6 16.09 Fair CLR 13.3 3.3 51% 76.38 1017.6
30 21:56 W 7 16.09 Fair CLR 15 1.7 41% 76.33 1017.2
30 20:56 Calm 16.09 Fair CLR 16.7 2.8 40% 76.3 1017.0
30 19:56 NW 7 16.09 Fair CLR 19.4 1.7 31% 76.3 1017.1
30 18:56 N 9 16.09 Fair CLR 20.6 1.7 29% 76.33 1017.4
30 17:56 NW 9 16.09 Fair CLR 21.1 2.2 22.2 17.8 29% 76.33 1017.3
30 16:56 N 17 14.48 Fair CLR 21.7 2.8 29% 76.38 1017.7
30 15:56 Vrbl 7 16.09 Fair CLR 21.7 1.1 26% 76.43 1018.4
30 14:56 NW 6 16.09 Fair CLR 21.1 2.2 29% 76.48 1019.1
30 13:56 NE 13 16.09 Fair CLR 20 3.3 33% 76.5 1019.5
30 11:56 E 15 16.09 Fair CLR 17.8 3.3 17.8 2.8 38% 76.61 1020.8
30 10:56 SE 15 16.09 Fair CLR 16.1 3.3 43% 76.63 1021.2
30 09:56 NE 7 16.09 Fair CLR 13.3 3.9 53% 76.66 1021.8
30 08:56 E 7 16.09 Fair CLR 10 3.3 63% 9 76.68 1022.0
30 07:56 Calm 16.09 Fair CLR 6.1 3.9 86% 76.66 1021.9
30 06:56 E 6 16.09 Fair CLR 3.3 1.7 89% 76.61 1021.3
30 05:56 Calm 16.09 Fair CLR 5 2.2 11.1 3.9 82% 76.58 1020.8
30 04:56 Calm 16.09 Fair CLR 6.1 2.2 76% 76.58 1020.6
30 03:56 W 11 16.09 Fair CLR 6.7 2.8 76% 5 76.53 1019.8
30 02:56 W 15 16.09 Fair CLR 7.2 2.8 74% 5 76.5 1019.6
30 01:56 W 11 16.09 Fair CLR 8.9 2.8 66% 7 76.48 1019.3
30 00:56 W 9 16.09 Fair CLR 8.9 3.3 68% 8 76.48 1019.2
29 23:56 SW 9 16.09 Fair CLR 11.1 2.8 20.6 10 57% 76.45 1019.0
29 22:56 W 9 16.09 Overcast OVC120 13.3 2.2 47% 76.48 1019.0
29 21:56 W 9 16.09 A Few Clouds FEW120 13.3 2.2 47% 76.45 1019.0
29 20:56 W 11 16.09 Fair CLR 15 1.7 41% 76.4 1018.5
29 19:56 NW 6 16.09 Fair CLR 17.2 0.6 33% 76.4 1018.2
29 18:56 NW 7 16.09 Fair CLR 19.4 0.6 29% 76.4 1018.2
29 17:56 N 15 G 30 16.09 Fair CLR 20.6 1.1 21.1 16.7 27% 76.4 1018.1
29 16:56 NW 7 16.09 Partly Cloudy SCT110 20 2.2 31% 76.43 1018.5
29 15:56 W 17 16.09 Partly Cloudy SCT095 20.6 2.2 30% 76.45 1018.8
29 14:56 Vrbl 7 16.09 Fair CLR 20 2.2 31% 76.48 1019.2
29 13:56 NW 7 16.09 Fair CLR 20 1.7 30% 76.5 1019.3
29 12:56 Vrbl 6 16.09 A Few Clouds FEW100 18.9 3.9 37% 76.56 1019.9
29 11:56 Calm 16.09 Fair CLR 16.7 2.8 16.7 7.8 40% 76.58 1020.5
29 10:56 Calm 16.09 A Few Clouds FEW120 14.4 2.2 44% 76.58 1020.6
Date Time (mdt) Wind (kph) Vis. (km) Weather Sky Cond. Air Dwpt Max. Min. Relative Humidity Wind Chill (°C) Heat Index (°C) altimeter (cm) sea level (mb) 1 hr 3 hr 6 hr
6 hour
Temperature (ºC) Pressure Precipitation (cm)